sensor_id;sensor_type;location;lat;lon;timestamp;P1;durP1;ratioP1;P2;durP2;ratioP2
58615;SDS011;44385;51.992;4.206;2024-01-07T00:02:05;9.75;;;7.45;;
58615;SDS011;44385;51.992;4.206;2024-01-07T00:04:32;11.82;;;8.27;;
58615;SDS011;44385;51.992;4.206;2024-01-07T00:06:59;9.40;;;7.97;;
58615;SDS011;44385;51.992;4.206;2024-01-07T00:09:26;9.68;;;8.68;;
58615;SDS011;44385;51.992;4.206;2024-01-07T00:11:52;11.07;;;9.25;;
58615;SDS011;44385;51.992;4.206;2024-01-07T00:14:18;10.95;;;9.07;;
58615;SDS011;44385;51.992;4.206;2024-01-07T00:16:45;10.52;;;9.10;;
58615;SDS011;44385;51.992;4.206;2024-01-07T00:19:11;10.68;;;8.98;;
58615;SDS011;44385;51.992;4.206;2024-01-07T00:21:39;11.63;;;10.05;;
58615;SDS011;44385;51.992;4.206;2024-01-07T00:24:06;13.38;;;9.68;;
58615;SDS011;44385;51.992;4.206;2024-01-07T00:26:32;12.38;;;10.65;;
58615;SDS011;44385;51.992;4.206;2024-01-07T00:28:59;12.30;;;10.20;;
58615;SDS011;44385;51.992;4.206;2024-01-07T00:31:25;11.30;;;9.77;;
58615;SDS011;44385;51.992;4.206;2024-01-07T00:33:52;12.50;;;10.13;;
58615;SDS011;44385;51.992;4.206;2024-01-07T00:36:18;14.35;;;11.18;;
58615;SDS011;44385;51.992;4.206;2024-01-07T00:38:46;13.80;;;11.32;;
58615;SDS011;44385;51.992;4.206;2024-01-07T00:41:15;13.93;;;10.85;;
58615;SDS011;44385;51.992;4.206;2024-01-07T00:43:41;12.65;;;10.85;;
58615;SDS011;44385;51.992;4.206;2024-01-07T00:46:08;13.77;;;10.93;;
58615;SDS011;44385;51.992;4.206;2024-01-07T00:48:34;13.20;;;11.57;;
58615;SDS011;44385;51.992;4.206;2024-01-07T00:51:01;18.30;;;12.23;;
58615;SDS011;44385;51.992;4.206;2024-01-07T00:53:27;15.38;;;11.60;;
58615;SDS011;44385;51.992;4.206;2024-01-07T00:55:55;13.43;;;10.35;;
58615;SDS011;44385;51.992;4.206;2024-01-07T00:58:22;15.27;;;11.88;;
58615;SDS011;44385;51.992;4.206;2024-01-07T01:00:49;14.85;;;11.80;;
58615;SDS011;44385;51.992;4.206;2024-01-07T01:03:16;14.38;;;11.38;;
58615;SDS011;44385;51.992;4.206;2024-01-07T01:05:43;16.55;;;10.95;;
58615;SDS011;44385;51.992;4.206;2024-01-07T01:08:09;13.20;;;10.52;;
58615;SDS011;44385;51.992;4.206;2024-01-07T01:10:35;13.95;;;11.27;;
58615;SDS011;44385;51.992;4.206;2024-01-07T01:13:03;12.80;;;10.18;;
58615;SDS011;44385;51.992;4.206;2024-01-07T01:15:30;14.10;;;10.02;;
58615;SDS011;44385;51.992;4.206;2024-01-07T01:17:56;14.00;;;10.57;;
58615;SDS011;44385;51.992;4.206;2024-01-07T01:20:23;14.05;;;11.27;;
58615;SDS011;44385;51.992;4.206;2024-01-07T01:22:49;14.57;;;11.48;;
58615;SDS011;44385;51.992;4.206;2024-01-07T01:25:16;17.38;;;11.82;;
58615;SDS011;44385;51.992;4.206;2024-01-07T01:27:43;16.20;;;11.93;;
58615;SDS011;44385;51.992;4.206;2024-01-07T01:30:11;13.55;;;11.35;;
58615;SDS011;44385;51.992;4.206;2024-01-07T01:32:39;15.13;;;12.60;;
58615;SDS011;44385;51.992;4.206;2024-01-07T01:35:06;15.90;;;11.88;;
58615;SDS011;44385;51.992;4.206;2024-01-07T01:37:32;15.27;;;11.18;;
58615;SDS011;44385;51.992;4.206;2024-01-07T01:39:59;13.68;;;11.00;;
58615;SDS011;44385;51.992;4.206;2024-01-07T01:42:25;16.13;;;11.95;;
58615;SDS011;44385;51.992;4.206;2024-01-07T01:44:52;12.80;;;11.30;;
58615;SDS011;44385;51.992;4.206;2024-01-07T01:47:23;15.88;;;12.02;;
58615;SDS011;44385;51.992;4.206;2024-01-07T01:49:50;14.20;;;11.27;;
58615;SDS011;44385;51.992;4.206;2024-01-07T01:52:16;15.75;;;12.18;;
58615;SDS011;44385;51.992;4.206;2024-01-07T01:54:43;13.75;;;11.77;;
58615;SDS011;44385;51.992;4.206;2024-01-07T01:57:13;14.23;;;12.27;;
58615;SDS011;44385;51.992;4.206;2024-01-07T01:59:40;15.60;;;11.00;;
58615;SDS011;44385;51.992;4.206;2024-01-07T02:02:06;14.63;;;12.57;;
58615;SDS011;44385;51.992;4.206;2024-01-07T02:04:34;15.43;;;12.75;;
58615;SDS011;44385;51.992;4.206;2024-01-07T02:07:01;17.88;;;12.57;;
58615;SDS011;44385;51.992;4.206;2024-01-07T02:09:27;14.52;;;12.52;;
58615;SDS011;44385;51.992;4.206;2024-01-07T02:12:00;13.10;;;11.35;;
58615;SDS011;44385;51.992;4.206;2024-01-07T02:14:26;14.55;;;12.48;;
58615;SDS011;44385;51.992;4.206;2024-01-07T02:16:53;14.52;;;12.05;;
58615;SDS011;44385;51.992;4.206;2024-01-07T02:19:19;16.75;;;12.40;;
58615;SDS011;44385;51.992;4.206;2024-01-07T02:21:50;17.58;;;13.23;;
58615;SDS011;44385;51.992;4.206;2024-01-07T02:24:21;15.63;;;11.90;;
58615;SDS011;44385;51.992;4.206;2024-01-07T02:26:48;19.35;;;13.52;;
58615;SDS011;44385;51.992;4.206;2024-01-07T02:29:16;15.75;;;12.27;;
58615;SDS011;44385;51.992;4.206;2024-01-07T02:31:43;16.30;;;13.25;;
58615;SDS011;44385;51.992;4.206;2024-01-07T02:34:09;16.52;;;14.25;;
58615;SDS011;44385;51.992;4.206;2024-01-07T02:36:36;19.55;;;12.50;;
58615;SDS011;44385;51.992;4.206;2024-01-07T02:39:02;17.88;;;13.38;;
58615;SDS011;44385;51.992;4.206;2024-01-07T02:41:30;17.60;;;13.55;;
58615;SDS011;44385;51.992;4.206;2024-01-07T02:43:56;18.58;;;14.05;;
58615;SDS011;44385;51.992;4.206;2024-01-07T02:46:23;16.73;;;13.90;;
58615;SDS011;44385;51.992;4.206;2024-01-07T02:48:50;17.58;;;14.23;;
58615;SDS011;44385;51.992;4.206;2024-01-07T02:51:17;15.55;;;13.23;;
58615;SDS011;44385;51.992;4.206;2024-01-07T02:53:44;18.13;;;14.23;;
58615;SDS011;44385;51.992;4.206;2024-01-07T02:56:10;16.67;;;13.68;;
58615;SDS011;44385;51.992;4.206;2024-01-07T02:58:38;16.02;;;13.23;;
58615;SDS011;44385;51.992;4.206;2024-01-07T03:01:08;17.95;;;13.43;;
58615;SDS011;44385;51.992;4.206;2024-01-07T03:06:00;16.88;;;13.48;;
58615;SDS011;44385;51.992;4.206;2024-01-07T03:08:27;16.88;;;14.35;;
58615;SDS011;44385;51.992;4.206;2024-01-07T03:10:53;17.80;;;14.30;;
58615;SDS011;44385;51.992;4.206;2024-01-07T03:13:20;16.45;;;13.23;;
58615;SDS011;44385;51.992;4.206;2024-01-07T03:15:48;16.67;;;13.32;;
58615;SDS011;44385;51.992;4.206;2024-01-07T03:18:15;15.90;;;13.18;;
58615;SDS011;44385;51.992;4.206;2024-01-07T03:20:42;17.55;;;13.60;;
58615;SDS011;44385;51.992;4.206;2024-01-07T03:23:09;17.50;;;13.85;;
58615;SDS011;44385;51.992;4.206;2024-01-07T03:25:35;14.77;;;12.68;;
58615;SDS011;44385;51.992;4.206;2024-01-07T03:28:02;15.82;;;13.02;;
58615;SDS011;44385;51.992;4.206;2024-01-07T03:30:28;16.33;;;13.52;;
58615;SDS011;44385;51.992;4.206;2024-01-07T03:32:56;16.45;;;13.75;;
58615;SDS011;44385;51.992;4.206;2024-01-07T03:35:23;18.42;;;13.52;;
58615;SDS011;44385;51.992;4.206;2024-01-07T03:37:50;17.23;;;13.77;;
58615;SDS011;44385;51.992;4.206;2024-01-07T03:40:16;15.38;;;12.25;;
58615;SDS011;44385;51.992;4.206;2024-01-07T03:42:43;16.40;;;13.70;;
58615;SDS011;44385;51.992;4.206;2024-01-07T03:45:09;15.90;;;12.73;;
58615;SDS011;44385;51.992;4.206;2024-01-07T03:47:36;18.08;;;13.68;;
58615;SDS011;44385;51.992;4.206;2024-01-07T03:50:04;16.98;;;13.38;;
58615;SDS011;44385;51.992;4.206;2024-01-07T03:52:30;16.88;;;13.13;;
58615;SDS011;44385;51.992;4.206;2024-01-07T03:54:58;18.33;;;14.07;;
58615;SDS011;44385;51.992;4.206;2024-01-07T03:57:24;15.32;;;13.13;;
58615;SDS011;44385;51.992;4.206;2024-01-07T03:59:50;14.95;;;13.30;;
58615;SDS011;44385;51.992;4.206;2024-01-07T04:02:17;15.60;;;13.57;;
58615;SDS011;44385;51.992;4.206;2024-01-07T04:04:44;15.43;;;13.10;;
58615;SDS011;44385;51.992;4.206;2024-01-07T04:07:12;16.05;;;13.43;;
58615;SDS011;44385;51.992;4.206;2024-01-07T04:09:38;18.13;;;13.43;;
58615;SDS011;44385;51.992;4.206;2024-01-07T04:12:05;15.98;;;13.52;;
58615;SDS011;44385;51.992;4.206;2024-01-07T04:14:32;17.45;;;14.25;;
58615;SDS011;44385;51.992;4.206;2024-01-07T04:16:58;21.02;;;13.52;;
58615;SDS011;44385;51.992;4.206;2024-01-07T04:19:25;16.52;;;13.43;;
58615;SDS011;44385;51.992;4.206;2024-01-07T04:21:51;17.35;;;13.60;;
58615;SDS011;44385;51.992;4.206;2024-01-07T04:24:19;17.27;;;13.18;;
58615;SDS011;44385;51.992;4.206;2024-01-07T04:26:45;16.80;;;14.05;;
58615;SDS011;44385;51.992;4.206;2024-01-07T04:29:14;16.88;;;13.70;;
58615;SDS011;44385;51.992;4.206;2024-01-07T04:31:40;17.30;;;14.20;;
58615;SDS011;44385;51.992;4.206;2024-01-07T04:34:07;16.45;;;13.70;;
58615;SDS011;44385;51.992;4.206;2024-01-07T04:36:33;14.30;;;12.73;;
58615;SDS011;44385;51.992;4.206;2024-01-07T04:38:59;17.15;;;14.40;;
58615;SDS011;44385;51.992;4.206;2024-01-07T04:41:27;14.75;;;13.20;;
58615;SDS011;44385;51.992;4.206;2024-01-07T04:43:54;17.88;;;13.88;;
58615;SDS011;44385;51.992;4.206;2024-01-07T04:46:20;14.70;;;13.10;;
58615;SDS011;44385;51.992;4.206;2024-01-07T04:48:47;15.27;;;12.68;;
58615;SDS011;44385;51.992;4.206;2024-01-07T04:51:15;15.05;;;12.38;;
58615;SDS011;44385;51.992;4.206;2024-01-07T04:53:41;16.02;;;13.82;;
58615;SDS011;44385;51.992;4.206;2024-01-07T04:56:08;19.60;;;13.48;;
58615;SDS011;44385;51.992;4.206;2024-01-07T04:58:35;13.77;;;12.27;;
58615;SDS011;44385;51.992;4.206;2024-01-07T05:01:02;14.98;;;12.68;;
58615;SDS011;44385;51.992;4.206;2024-01-07T05:03:28;16.83;;;14.20;;
58615;SDS011;44385;51.992;4.206;2024-01-07T05:05:55;15.43;;;13.27;;
58615;SDS011;44385;51.992;4.206;2024-01-07T05:08:21;13.55;;;12.13;;
58615;SDS011;44385;51.992;4.206;2024-01-07T05:10:48;14.75;;;12.68;;
58615;SDS011;44385;51.992;4.206;2024-01-07T05:13:16;16.35;;;13.77;;
58615;SDS011;44385;51.992;4.206;2024-01-07T05:15:44;18.30;;;15.18;;
58615;SDS011;44385;51.992;4.206;2024-01-07T05:18:11;13.65;;;12.30;;
58615;SDS011;44385;51.992;4.206;2024-01-07T05:20:38;13.57;;;12.10;;
58615;SDS011;44385;51.992;4.206;2024-01-07T05:23:05;16.00;;;13.15;;
58615;SDS011;44385;51.992;4.206;2024-01-07T05:25:32;17.35;;;14.00;;
58615;SDS011;44385;51.992;4.206;2024-01-07T05:27:58;15.20;;;13.60;;
58615;SDS011;44385;51.992;4.206;2024-01-07T05:30:24;17.00;;;13.68;;
58615;SDS011;44385;51.992;4.206;2024-01-07T05:32:52;16.23;;;14.10;;
58615;SDS011;44385;51.992;4.206;2024-01-07T05:35:19;16.27;;;13.63;;
58615;SDS011;44385;51.992;4.206;2024-01-07T05:37:45;18.45;;;13.38;;
58615;SDS011;44385;51.992;4.206;2024-01-07T05:40:12;18.63;;;14.35;;
58615;SDS011;44385;51.992;4.206;2024-01-07T05:42:38;19.02;;;14.63;;
58615;SDS011;44385;51.992;4.206;2024-01-07T05:45:05;18.40;;;14.68;;
58615;SDS011;44385;51.992;4.206;2024-01-07T05:47:31;16.00;;;13.55;;
58615;SDS011;44385;51.992;4.206;2024-01-07T05:49:59;17.20;;;14.07;;
58615;SDS011;44385;51.992;4.206;2024-01-07T05:52:27;19.60;;;14.10;;
58615;SDS011;44385;51.992;4.206;2024-01-07T05:54:53;16.55;;;14.23;;
58615;SDS011;44385;51.992;4.206;2024-01-07T05:57:20;19.80;;;14.88;;
58615;SDS011;44385;51.992;4.206;2024-01-07T05:59:46;18.85;;;14.38;;
58615;SDS011;44385;51.992;4.206;2024-01-07T06:02:15;18.48;;;15.25;;
58615;SDS011;44385;51.992;4.206;2024-01-07T06:04:42;18.92;;;14.73;;
58615;SDS011;44385;51.992;4.206;2024-01-07T06:07:10;18.80;;;14.77;;
58615;SDS011;44385;51.992;4.206;2024-01-07T06:09:36;18.38;;;14.32;;
58615;SDS011;44385;51.992;4.206;2024-01-07T06:12:03;17.75;;;14.50;;
58615;SDS011;44385;51.992;4.206;2024-01-07T06:14:29;19.13;;;14.85;;
58615;SDS011;44385;51.992;4.206;2024-01-07T06:16:56;21.05;;;15.50;;
58615;SDS011;44385;51.992;4.206;2024-01-07T06:19:22;21.13;;;15.50;;
58615;SDS011;44385;51.992;4.206;2024-01-07T06:21:49;21.85;;;16.42;;
58615;SDS011;44385;51.992;4.206;2024-01-07T06:24:17;18.70;;;15.10;;
58615;SDS011;44385;51.992;4.206;2024-01-07T06:26:44;19.60;;;14.55;;
58615;SDS011;44385;51.992;4.206;2024-01-07T06:29:10;20.67;;;15.35;;
58615;SDS011;44385;51.992;4.206;2024-01-07T06:31:42;18.33;;;14.18;;
58615;SDS011;44385;51.992;4.206;2024-01-07T06:34:09;18.50;;;14.35;;
58615;SDS011;44385;51.992;4.206;2024-01-07T06:36:38;22.15;;;15.93;;
58615;SDS011;44385;51.992;4.206;2024-01-07T06:39:05;19.60;;;15.60;;
58615;SDS011;44385;51.992;4.206;2024-01-07T06:41:34;21.35;;;16.02;;
58615;SDS011;44385;51.992;4.206;2024-01-07T06:44:01;21.80;;;16.50;;
58615;SDS011;44385;51.992;4.206;2024-01-07T06:46:27;22.45;;;15.80;;
58615;SDS011;44385;51.992;4.206;2024-01-07T06:48:54;21.35;;;15.98;;
58615;SDS011;44385;51.992;4.206;2024-01-07T06:51:20;22.25;;;17.15;;
58615;SDS011;44385;51.992;4.206;2024-01-07T06:53:50;25.40;;;17.33;;
58615;SDS011;44385;51.992;4.206;2024-01-07T06:58:44;23.02;;;17.05;;
58615;SDS011;44385;51.992;4.206;2024-01-07T07:01:11;22.08;;;17.45;;
58615;SDS011;44385;51.992;4.206;2024-01-07T07:03:39;24.15;;;18.80;;
58615;SDS011;44385;51.992;4.206;2024-01-07T07:06:06;25.50;;;18.15;;
58615;SDS011;44385;51.992;4.206;2024-01-07T07:08:33;23.13;;;17.05;;
58615;SDS011;44385;51.992;4.206;2024-01-07T07:11:00;23.48;;;17.90;;
58615;SDS011;44385;51.992;4.206;2024-01-07T07:13:26;22.88;;;18.05;;
58615;SDS011;44385;51.992;4.206;2024-01-07T07:15:54;25.55;;;18.27;;
58615;SDS011;44385;51.992;4.206;2024-01-07T07:18:21;22.60;;;17.63;;
58615;SDS011;44385;51.992;4.206;2024-01-07T07:20:48;27.17;;;17.92;;
58615;SDS011;44385;51.992;4.206;2024-01-07T07:23:16;24.70;;;18.45;;
58615;SDS011;44385;51.992;4.206;2024-01-07T07:25:43;26.33;;;18.35;;
58615;SDS011;44385;51.992;4.206;2024-01-07T07:28:09;25.20;;;18.45;;
58615;SDS011;44385;51.992;4.206;2024-01-07T07:30:35;28.10;;;20.08;;
58615;SDS011;44385;51.992;4.206;2024-01-07T07:33:03;25.65;;;18.90;;
58615;SDS011;44385;51.992;4.206;2024-01-07T07:35:30;25.40;;;18.80;;
58615;SDS011;44385;51.992;4.206;2024-01-07T07:37:56;26.77;;;18.95;;
58615;SDS011;44385;51.992;4.206;2024-01-07T07:40:23;25.67;;;18.52;;
58615;SDS011;44385;51.992;4.206;2024-01-07T07:42:50;24.38;;;18.20;;
58615;SDS011;44385;51.992;4.206;2024-01-07T07:45:17;25.10;;;18.27;;
58615;SDS011;44385;51.992;4.206;2024-01-07T07:47:44;25.30;;;19.55;;
58615;SDS011;44385;51.992;4.206;2024-01-07T07:50:12;22.67;;;17.45;;
58615;SDS011;44385;51.992;4.206;2024-01-07T07:52:38;22.85;;;16.83;;
58615;SDS011;44385;51.992;4.206;2024-01-07T07:55:05;21.88;;;17.80;;
58615;SDS011;44385;51.992;4.206;2024-01-07T07:57:33;22.85;;;17.27;;
58615;SDS011;44385;51.992;4.206;2024-01-07T07:59:59;19.23;;;16.52;;
58615;SDS011;44385;51.992;4.206;2024-01-07T08:02:25;20.17;;;14.68;;
58615;SDS011;44385;51.992;4.206;2024-01-07T08:04:52;16.23;;;13.00;;
58615;SDS011;44385;51.992;4.206;2024-01-07T08:07:20;19.40;;;14.43;;
58615;SDS011;44385;51.992;4.206;2024-01-07T08:09:46;19.40;;;14.38;;
58615;SDS011;44385;51.992;4.206;2024-01-07T08:12:14;17.70;;;14.43;;
58615;SDS011;44385;51.992;4.206;2024-01-07T08:14:40;16.83;;;12.93;;
58615;SDS011;44385;51.992;4.206;2024-01-07T08:17:07;15.82;;;13.02;;
58615;SDS011;44385;51.992;4.206;2024-01-07T08:19:35;16.25;;;13.38;;
58615;SDS011;44385;51.992;4.206;2024-01-07T08:22:02;16.52;;;12.70;;
58615;SDS011;44385;51.992;4.206;2024-01-07T08:24:30;14.68;;;13.05;;
58615;SDS011;44385;51.992;4.206;2024-01-07T08:26:57;15.65;;;12.02;;
58615;SDS011;44385;51.992;4.206;2024-01-07T08:29:24;17.30;;;13.35;;
58615;SDS011;44385;51.992;4.206;2024-01-07T08:31:50;14.13;;;12.70;;
58615;SDS011;44385;51.992;4.206;2024-01-07T08:34:17;16.20;;;12.55;;
58615;SDS011;44385;51.992;4.206;2024-01-07T08:36:44;14.93;;;13.20;;
58615;SDS011;44385;51.992;4.206;2024-01-07T08:39:10;17.33;;;13.05;;
58615;SDS011;44385;51.992;4.206;2024-01-07T08:41:38;15.98;;;12.45;;
58615;SDS011;44385;51.992;4.206;2024-01-07T08:44:05;13.65;;;11.57;;
58615;SDS011;44385;51.992;4.206;2024-01-07T08:46:33;15.93;;;12.30;;
58615;SDS011;44385;51.992;4.206;2024-01-07T08:48:59;18.98;;;13.38;;
58615;SDS011;44385;51.992;4.206;2024-01-07T08:51:26;16.13;;;12.63;;
58615;SDS011;44385;51.992;4.206;2024-01-07T08:53:52;14.35;;;12.18;;
58615;SDS011;44385;51.992;4.206;2024-01-07T08:56:19;16.45;;;12.88;;
58615;SDS011;44385;51.992;4.206;2024-01-07T08:58:46;15.95;;;13.52;;
58615;SDS011;44385;51.992;4.206;2024-01-07T09:01:17;15.93;;;12.10;;
58615;SDS011;44385;51.992;4.206;2024-01-07T09:03:44;15.02;;;11.93;;
58615;SDS011;44385;51.992;4.206;2024-01-07T09:06:10;15.10;;;11.63;;
58615;SDS011;44385;51.992;4.206;2024-01-07T09:08:37;14.95;;;11.85;;
58615;SDS011;44385;51.992;4.206;2024-01-07T09:11:03;16.95;;;12.80;;
58615;SDS011;44385;51.992;4.206;2024-01-07T09:13:31;16.65;;;12.82;;
58615;SDS011;44385;51.992;4.206;2024-01-07T09:15:59;16.77;;;12.55;;
58615;SDS011;44385;51.992;4.206;2024-01-07T09:18:26;17.08;;;13.05;;
58615;SDS011;44385;51.992;4.206;2024-01-07T09:20:52;16.95;;;12.18;;
58615;SDS011;44385;51.992;4.206;2024-01-07T09:23:18;15.88;;;13.27;;
58615;SDS011;44385;51.992;4.206;2024-01-07T09:25:45;15.88;;;12.60;;
58615;SDS011;44385;51.992;4.206;2024-01-07T09:28:15;14.32;;;11.65;;
58615;SDS011;44385;51.992;4.206;2024-01-07T09:30:42;13.35;;;10.98;;
58615;SDS011;44385;51.992;4.206;2024-01-07T09:33:10;13.20;;;11.60;;
58615;SDS011;44385;51.992;4.206;2024-01-07T09:35:36;13.80;;;11.63;;
58615;SDS011;44385;51.992;4.206;2024-01-07T09:38:03;12.60;;;10.40;;
58615;SDS011;44385;51.992;4.206;2024-01-07T09:40:29;13.63;;;10.65;;
58615;SDS011;44385;51.992;4.206;2024-01-07T09:42:56;13.93;;;11.70;;
58615;SDS011;44385;51.992;4.206;2024-01-07T09:45:24;13.95;;;12.45;;
58615;SDS011;44385;51.992;4.206;2024-01-07T09:47:51;14.10;;;11.10;;
58615;SDS011;44385;51.992;4.206;2024-01-07T09:50:19;14.57;;;11.50;;
58615;SDS011;44385;51.992;4.206;2024-01-07T09:52:45;14.75;;;11.27;;
58615;SDS011;44385;51.992;4.206;2024-01-07T09:55:12;15.52;;;11.20;;
58615;SDS011;44385;51.992;4.206;2024-01-07T09:57:40;12.37;;;10.67;;
58615;SDS011;44385;51.992;4.206;2024-01-07T10:00:10;13.38;;;11.88;;
58615;SDS011;44385;51.992;4.206;2024-01-07T10:02:38;15.63;;;10.70;;
58615;SDS011;44385;51.992;4.206;2024-01-07T10:05:06;13.75;;;10.45;;
58615;SDS011;44385;51.992;4.206;2024-01-07T10:07:34;13.52;;;11.07;;
58615;SDS011;44385;51.992;4.206;2024-01-07T10:10:09;13.52;;;11.05;;
58615;SDS011;44385;51.992;4.206;2024-01-07T10:12:36;13.27;;;10.10;;
58615;SDS011;44385;51.992;4.206;2024-01-07T10:15:02;12.63;;;10.32;;
58615;SDS011;44385;51.992;4.206;2024-01-07T10:17:32;11.63;;;10.00;;
58615;SDS011;44385;51.992;4.206;2024-01-07T10:19:58;13.13;;;9.27;;
58615;SDS011;44385;51.992;4.206;2024-01-07T10:22:25;11.10;;;9.90;;
58615;SDS011;44385;51.992;4.206;2024-01-07T10:24:54;14.82;;;10.02;;
58615;SDS011;44385;51.992;4.206;2024-01-07T10:27:22;10.90;;;8.95;;
58615;SDS011;44385;51.992;4.206;2024-01-07T10:29:49;10.52;;;9.27;;
58615;SDS011;44385;51.992;4.206;2024-01-07T10:32:20;11.13;;;8.98;;
58615;SDS011;44385;51.992;4.206;2024-01-07T10:34:46;10.45;;;8.57;;
58615;SDS011;44385;51.992;4.206;2024-01-07T10:37:16;11.68;;;9.55;;
58615;SDS011;44385;51.992;4.206;2024-01-07T10:39:42;11.05;;;8.98;;
58615;SDS011;44385;51.992;4.206;2024-01-07T10:42:10;9.70;;;8.70;;
58615;SDS011;44385;51.992;4.206;2024-01-07T10:44:38;11.85;;;9.20;;
58615;SDS011;44385;51.992;4.206;2024-01-07T10:47:06;11.50;;;9.32;;
58615;SDS011;44385;51.992;4.206;2024-01-07T10:49:33;9.80;;;8.65;;
58615;SDS011;44385;51.992;4.206;2024-01-07T10:52:02;10.43;;;9.30;;
58615;SDS011;44385;51.992;4.206;2024-01-07T10:54:30;9.88;;;8.57;;
58615;SDS011;44385;51.992;4.206;2024-01-07T10:56:58;11.80;;;8.25;;
58615;SDS011;44385;51.992;4.206;2024-01-07T10:59:27;10.82;;;8.43;;
58615;SDS011;44385;51.992;4.206;2024-01-07T11:01:55;9.52;;;7.88;;
58615;SDS011;44385;51.992;4.206;2024-01-07T11:04:22;11.43;;;9.02;;
58615;SDS011;44385;51.992;4.206;2024-01-07T11:06:51;10.00;;;7.25;;
58615;SDS011;44385;51.992;4.206;2024-01-07T11:09:20;10.25;;;8.48;;
58615;SDS011;44385;51.992;4.206;2024-01-07T11:11:49;8.85;;;7.95;;
58615;SDS011;44385;51.992;4.206;2024-01-07T11:14:37;9.68;;;7.57;;
58615;SDS011;44385;51.992;4.206;2024-01-07T11:17:04;10.43;;;7.70;;
58615;SDS011;44385;51.992;4.206;2024-01-07T11:19:31;9.00;;;7.90;;
58615;SDS011;44385;51.992;4.206;2024-01-07T11:24:38;8.93;;;6.85;;
58615;SDS011;44385;51.992;4.206;2024-01-07T11:27:07;10.20;;;7.85;;
58615;SDS011;44385;51.992;4.206;2024-01-07T11:29:34;10.77;;;7.72;;
58615;SDS011;44385;51.992;4.206;2024-01-07T11:32:02;12.95;;;7.15;;
58615;SDS011;44385;51.992;4.206;2024-01-07T11:34:38;8.98;;;7.03;;
58615;SDS011;44385;51.992;4.206;2024-01-07T11:37:06;8.88;;;6.45;;
58615;SDS011;44385;51.992;4.206;2024-01-07T11:39:33;8.10;;;6.60;;
58615;SDS011;44385;51.992;4.206;2024-01-07T11:42:00;7.80;;;6.28;;
58615;SDS011;44385;51.992;4.206;2024-01-07T11:44:27;9.43;;;6.82;;
58615;SDS011;44385;51.992;4.206;2024-01-07T11:46:53;7.45;;;6.15;;
58615;SDS011;44385;51.992;4.206;2024-01-07T11:49:21;8.45;;;6.80;;
58615;SDS011;44385;51.992;4.206;2024-01-07T11:51:48;8.65;;;6.57;;
58615;SDS011;44385;51.992;4.206;2024-01-07T11:54:16;9.90;;;7.07;;
58615;SDS011;44385;51.992;4.206;2024-01-07T11:56:44;8.15;;;6.45;;
58615;SDS011;44385;51.992;4.206;2024-01-07T11:59:10;6.72;;;6.07;;
58615;SDS011;44385;51.992;4.206;2024-01-07T12:01:37;9.13;;;7.30;;
58615;SDS011;44385;51.992;4.206;2024-01-07T12:04:03;8.50;;;7.18;;
58615;SDS011;44385;51.992;4.206;2024-01-07T12:06:31;9.50;;;6.40;;
58615;SDS011;44385;51.992;4.206;2024-01-07T12:08:57;6.18;;;5.57;;
58615;SDS011;44385;51.992;4.206;2024-01-07T12:11:24;6.47;;;5.80;;
58615;SDS011;44385;51.992;4.206;2024-01-07T12:13:50;8.45;;;5.85;;
58615;SDS011;44385;51.992;4.206;2024-01-07T12:16:17;6.05;;;4.45;;
58615;SDS011;44385;51.992;4.206;2024-01-07T12:18:44;5.07;;;4.55;;
58615;SDS011;44385;51.992;4.206;2024-01-07T12:21:14;6.95;;;4.38;;
58615;SDS011;44385;51.992;4.206;2024-01-07T12:23:47;4.53;;;3.78;;
58615;SDS011;44385;51.992;4.206;2024-01-07T12:26:15;6.35;;;3.95;;
58615;SDS011;44385;51.992;4.206;2024-01-07T12:28:42;6.65;;;4.80;;
58615;SDS011;44385;51.992;4.206;2024-01-07T12:31:08;3.00;;;2.70;;
58615;SDS011;44385;51.992;4.206;2024-01-07T12:33:36;4.88;;;3.70;;
58615;SDS011;44385;51.992;4.206;2024-01-07T12:36:03;4.47;;;2.97;;
58615;SDS011;44385;51.992;4.206;2024-01-07T12:38:29;3.70;;;3.30;;
58615;SDS011;44385;51.992;4.206;2024-01-07T12:40:57;3.90;;;3.22;;
58615;SDS011;44385;51.992;4.206;2024-01-07T12:43:24;4.82;;;3.15;;
58615;SDS011;44385;51.992;4.206;2024-01-07T12:45:50;4.85;;;2.83;;
58615;SDS011;44385;51.992;4.206;2024-01-07T12:48:18;4.10;;;3.70;;
58615;SDS011;44385;51.992;4.206;2024-01-07T12:50:44;4.50;;;3.63;;
58615;SDS011;44385;51.992;4.206;2024-01-07T12:53:11;3.92;;;3.40;;
58615;SDS011;44385;51.992;4.206;2024-01-07T12:55:37;4.18;;;3.70;;
58615;SDS011;44385;51.992;4.206;2024-01-07T12:58:05;4.70;;;3.47;;
58615;SDS011;44385;51.992;4.206;2024-01-07T13:00:32;7.10;;;4.20;;
58615;SDS011;44385;51.992;4.206;2024-01-07T13:03:00;5.28;;;3.80;;
58615;SDS011;44385;51.992;4.206;2024-01-07T13:05:26;4.93;;;4.20;;
58615;SDS011;44385;51.992;4.206;2024-01-07T13:07:53;4.85;;;4.20;;
58615;SDS011;44385;51.992;4.206;2024-01-07T13:10:19;3.90;;;3.53;;
58615;SDS011;44385;51.992;4.206;2024-01-07T13:12:46;5.68;;;4.03;;
58615;SDS011;44385;51.992;4.206;2024-01-07T13:15:16;4.38;;;3.75;;
58615;SDS011;44385;51.992;4.206;2024-01-07T13:17:43;4.38;;;3.97;;
58615;SDS011;44385;51.992;4.206;2024-01-07T13:20:09;4.30;;;3.63;;
58615;SDS011;44385;51.992;4.206;2024-01-07T13:22:36;4.95;;;3.30;;
58615;SDS011;44385;51.992;4.206;2024-01-07T13:25:03;5.68;;;3.25;;
58615;SDS011;44385;51.992;4.206;2024-01-07T13:27:30;8.85;;;3.53;;
58615;SDS011;44385;51.992;4.206;2024-01-07T13:29:56;4.00;;;2.30;;
58615;SDS011;44385;51.992;4.206;2024-01-07T13:32:24;5.35;;;3.03;;
58615;SDS011;44385;51.992;4.206;2024-01-07T13:34:51;4.53;;;3.03;;
58615;SDS011;44385;51.992;4.206;2024-01-07T13:37:17;5.43;;;2.85;;
58615;SDS011;44385;51.992;4.206;2024-01-07T13:39:45;4.57;;;2.67;;
58615;SDS011;44385;51.992;4.206;2024-01-07T13:42:15;3.42;;;3.05;;
58615;SDS011;44385;51.992;4.206;2024-01-07T13:44:42;4.93;;;3.35;;
58615;SDS011;44385;51.992;4.206;2024-01-07T13:47:11;3.47;;;2.83;;
58615;SDS011;44385;51.992;4.206;2024-01-07T13:49:40;3.78;;;2.38;;
58615;SDS011;44385;51.992;4.206;2024-01-07T13:52:07;5.95;;;2.90;;
58615;SDS011;44385;51.992;4.206;2024-01-07T13:54:34;4.03;;;3.22;;
58615;SDS011;44385;51.992;4.206;2024-01-07T13:57:00;3.40;;;2.75;;
58615;SDS011;44385;51.992;4.206;2024-01-07T13:59:27;4.28;;;2.72;;
58615;SDS011;44385;51.992;4.206;2024-01-07T14:01:53;3.05;;;2.75;;
58615;SDS011;44385;51.992;4.206;2024-01-07T14:04:20;3.80;;;2.53;;
58615;SDS011;44385;51.992;4.206;2024-01-07T14:06:54;4.28;;;3.30;;
58615;SDS011;44385;51.992;4.206;2024-01-07T14:09:21;3.78;;;2.38;;
58615;SDS011;44385;51.992;4.206;2024-01-07T14:11:49;4.78;;;3.03;;
58615;SDS011;44385;51.992;4.206;2024-01-07T14:14:17;3.03;;;2.72;;
58615;SDS011;44385;51.992;4.206;2024-01-07T14:16:45;3.42;;;2.50;;
58615;SDS011;44385;51.992;4.206;2024-01-07T14:19:12;6.78;;;3.10;;
58615;SDS011;44385;51.992;4.206;2024-01-07T14:21:39;4.78;;;2.97;;
58615;SDS011;44385;51.992;4.206;2024-01-07T14:24:07;3.58;;;3.28;;
58615;SDS011;44385;51.992;4.206;2024-01-07T14:26:34;2.85;;;2.60;;
58615;SDS011;44385;51.992;4.206;2024-01-07T14:29:00;3.60;;;3.28;;
58615;SDS011;44385;51.992;4.206;2024-01-07T14:31:27;5.00;;;2.28;;
58615;SDS011;44385;51.992;4.206;2024-01-07T14:33:53;5.90;;;2.67;;
58615;SDS011;44385;51.992;4.206;2024-01-07T14:36:20;3.95;;;2.67;;